createdAt,value
2017-07-27T15:40:47.924Z,54.80
2017-07-27T15:43:14.248Z,54.90
2017-07-27T15:45:40.554Z,55.10
2017-07-27T15:48:06.915Z,55.80
2017-07-27T15:50:33.227Z,58.70
2017-07-27T15:58:24.479Z,51.60
2017-07-27T16:00:50.844Z,51.60
2017-07-27T16:03:17.128Z,51.90
2017-07-27T16:05:44.168Z,53.80
2017-07-27T16:08:10.502Z,53.80
2017-07-27T16:10:36.816Z,54.30
2017-07-27T16:13:03.161Z,54.70
2017-07-27T16:15:29.624Z,55.10
2017-07-27T16:17:55.927Z,55.40
2017-07-27T16:20:22.254Z,55.60
2017-07-27T16:22:55.729Z,55.80
2017-07-27T16:25:22.768Z,56.20
2017-07-27T16:27:49.092Z,56.10
2017-07-27T16:30:15.378Z,56.30
2017-07-27T16:32:41.665Z,56.30
2017-07-27T16:35:08.009Z,56.50
2017-07-27T16:37:35.179Z,57.00
2017-07-27T16:40:02.471Z,56.10
2017-07-27T16:42:28.808Z,56.00
2017-07-27T16:44:57.149Z,56.80
2017-07-27T16:48:47.756Z,55.00
2017-07-27T16:51:14.092Z,55.70
2017-07-27T16:53:46.581Z,56.90
2017-07-27T16:56:13.372Z,58.70
2017-07-27T16:58:39.692Z,60.40
2017-07-27T17:01:06.016Z,62.20
2017-07-27T17:03:32.326Z,64.50
2017-07-27T17:05:58.613Z,66.00
2017-07-27T17:08:24.977Z,66.10
2017-07-27T17:10:51.312Z,67.20
2017-07-27T17:13:17.699Z,67.60
2017-07-27T17:15:44.724Z,69.30
2017-07-27T17:18:11.139Z,69.20
2017-07-27T17:20:37.501Z,70.00
2017-07-27T17:23:04.608Z,70.80
2017-07-27T17:25:31.284Z,70.70
2017-07-27T17:27:58.322Z,70.50
2017-07-27T17:30:25.541Z,71.30
2017-07-27T17:32:51.884Z,71.20
2017-07-27T17:35:18.246Z,70.70
2017-07-27T17:37:45.413Z,70.70
2017-07-27T17:40:12.062Z,70.00
2017-07-27T17:42:38.344Z,70.50
2017-07-27T17:45:04.620Z,70.60
2017-07-27T17:47:30.944Z,70.50
2017-07-27T17:49:57.224Z,70.00
2017-07-27T17:52:23.547Z,69.60
2017-07-27T17:54:49.854Z,69.90
2017-07-27T17:57:16.179Z,68.80
2017-07-27T17:59:42.543Z,68.80
2017-07-27T18:02:09.020Z,69.20
2017-07-27T18:04:35.407Z,69.60
2017-07-27T18:07:01.723Z,70.00
2017-07-27T18:09:28.055Z,70.10
2017-07-27T18:11:54.422Z,70.50
2017-07-27T18:14:20.747Z,70.70
2017-07-27T18:16:47.122Z,70.90
2017-07-27T18:19:13.485Z,71.60
2017-07-27T18:21:39.807Z,72.10
2017-07-27T18:24:06.245Z,72.30
2017-07-27T18:26:32.555Z,72.90
2017-07-27T18:28:58.867Z,73.30
2017-07-27T18:31:25.184Z,73.40
2017-07-27T18:33:52.237Z,74.30
2017-07-27T18:36:18.595Z,74.40
2017-07-27T18:38:44.907Z,74.50
2017-07-27T18:41:11.235Z,74.70
2017-07-27T18:43:37.568Z,75.20
2017-07-27T18:46:03.892Z,75.10
2017-07-27T18:48:30.263Z,75.00
2017-07-27T18:50:56.571Z,75.50
2017-07-27T18:53:22.883Z,75.30
2017-07-27T18:55:49.308Z,75.50
2017-07-27T18:58:15.646Z,75.60
2017-07-27T19:00:41.974Z,75.60
2017-07-27T19:03:15.191Z,76.00
2017-07-27T19:05:41.637Z,76.30
2017-07-27T19:08:07.966Z,76.40
2017-07-27T19:10:34.313Z,77.10
2017-07-27T19:13:00.616Z,76.30
2017-07-27T19:15:26.993Z,77.00
2017-07-27T19:17:54.080Z,77.50
2017-07-27T19:20:20.473Z,77.40
2017-07-27T19:22:46.812Z,78.00
2017-07-27T19:25:14.332Z,79.00
2017-07-27T19:27:40.680Z,79.00
2017-07-27T19:30:07.321Z,79.70
2017-07-27T19:32:34.461Z,80.30
2017-07-27T19:35:00.959Z,80.30
2017-07-27T19:37:27.576Z,80.10
2017-07-27T19:39:54.032Z,80.30
2017-07-27T19:42:20.369Z,80.50
2017-07-27T19:44:46.669Z,80.80
2017-07-27T19:47:12.976Z,80.60
2017-07-27T19:49:39.284Z,80.70
2017-07-27T19:52:05.636Z,80.90
2017-07-27T19:54:31.956Z,81.10
2017-07-27T19:56:58.264Z,81.00
2017-07-27T19:59:24.581Z,81.10
2017-07-27T20:01:50.931Z,81.40
2017-07-27T20:04:17.328Z,81.50
2017-07-27T20:06:43.667Z,81.70
2017-07-27T20:09:09.996Z,81.40
2017-07-27T20:11:36.424Z,81.90
2017-07-27T20:14:02.719Z,81.90
2017-07-27T20:16:29.773Z,81.60
2017-07-27T20:19:03.785Z,81.80
2017-07-27T20:21:30.151Z,81.80
2017-07-27T20:23:56.532Z,81.80
2017-07-27T20:26:22.904Z,81.90
2017-07-27T20:28:49.203Z,81.80
2017-07-27T20:31:16.344Z,81.90
2017-07-27T20:33:42.676Z,81.80
2017-07-27T20:36:09.762Z,81.70
2017-07-27T20:38:36.095Z,81.70
2017-07-27T20:41:02.444Z,82.10
2017-07-27T20:43:28.737Z,83.00
2017-07-27T20:45:55.069Z,83.60
2017-07-27T20:48:21.461Z,84.10
2017-07-27T20:50:47.792Z,84.90
2017-07-27T20:53:14.118Z,84.00
2017-07-27T20:55:40.429Z,85.00
2017-07-27T20:58:06.761Z,85.20
2017-07-27T21:00:33.225Z,86.00
2017-07-27T21:03:00.303Z,86.10
2017-07-27T21:05:26.620Z,86.80
2017-07-27T21:07:53.684Z,86.00
2017-07-27T21:10:20.051Z,86.00
2017-07-27T21:12:46.328Z,86.20
2017-07-27T21:15:13.389Z,85.60
2017-07-27T21:17:39.746Z,85.60
2017-07-27T21:20:06.055Z,85.90
2017-07-27T21:22:32.346Z,85.40
2017-07-27T21:24:58.641Z,85.60
2017-07-27T21:27:24.943Z,85.70
2017-07-27T21:29:51.315Z,85.50
2017-07-27T21:32:17.648Z,84.60
2017-07-27T21:34:43.943Z,84.90
2017-07-27T21:37:10.226Z,84.40
2017-07-27T21:39:37.285Z,84.70
2017-07-27T21:42:04.296Z,84.90
2017-07-27T21:44:30.604Z,84.90
2017-07-27T21:46:56.908Z,85.10
2017-07-27T21:49:23.231Z,84.90
2017-07-27T21:51:50.292Z,84.10
2017-07-27T21:54:16.607Z,84.10
2017-07-27T21:56:43.663Z,82.80
2017-07-27T21:59:09.972Z,82.80
2017-07-27T22:01:37.068Z,84.30
2017-07-27T22:04:03.556Z,83.40
2017-07-27T22:06:30.635Z,83.70
2017-07-27T22:08:56.951Z,83.60
2017-07-27T22:11:23.273Z,83.90
2017-07-27T22:13:49.618Z,84.20
2017-07-27T22:16:15.921Z,84.50
2017-07-27T22:18:42.232Z,84.80
2017-07-27T22:21:08.505Z,84.90
2017-07-27T22:23:34.828Z,84.60
2017-07-27T22:26:01.868Z,84.30
2017-07-27T22:28:28.202Z,84.30
2017-07-27T22:30:55.234Z,84.40
2017-07-27T22:33:21.523Z,84.30
2017-07-27T22:35:47.833Z,84.70
2017-07-27T22:38:14.158Z,84.60
2017-07-27T22:40:40.427Z,84.70
2017-07-27T22:43:06.733Z,84.80
2017-07-27T22:45:33.014Z,84.70
2017-07-27T22:48:00.101Z,85.40
2017-07-27T22:50:26.367Z,84.90
2017-07-27T22:52:52.669Z,84.70
2017-07-27T22:55:18.959Z,84.80
2017-07-27T22:57:45.968Z,84.80
2017-07-27T23:00:12.272Z,84.70
2017-07-27T23:02:38.771Z,84.80
2017-07-27T23:05:05.853Z,85.00
2017-07-27T23:07:32.131Z,84.90
2017-07-27T23:09:58.445Z,85.20
2017-07-27T23:12:24.805Z,85.30
2017-07-27T23:14:51.858Z,85.20
2017-07-27T23:17:18.905Z,85.10
2017-07-27T23:19:45.935Z,84.50
2017-07-27T23:22:12.217Z,84.50
2017-07-27T23:24:38.532Z,84.70
2017-07-27T23:27:04.846Z,84.70
2017-07-27T23:29:31.903Z,84.90
2017-07-27T23:31:58.192Z,84.90
2017-07-27T23:34:25.323Z,85.20
2017-07-27T23:36:51.685Z,85.20
2017-07-27T23:39:18.835Z,85.50
2017-07-27T23:41:45.902Z,87.00
2017-07-27T23:44:13.000Z,86.70
2017-07-27T23:46:39.312Z,86.60
2017-07-27T23:49:05.645Z,87.30
2017-07-27T23:51:31.958Z,88.00
2017-07-27T23:53:58.252Z,88.00
2017-07-27T23:56:25.280Z,89.00
2017-07-27T23:58:51.613Z,89.00
